createdAt,value
2022-12-08T00:01:00.639Z,40.07
2022-12-08T00:02:00.920Z,40.18
2022-12-08T00:03:00.112Z,39.96
2022-12-08T00:03:59.210Z,39.53
2022-12-08T00:04:59.398Z,39.42
2022-12-08T00:05:59.569Z,40.12
2022-12-08T00:07:00.729Z,39.96
2022-12-08T00:08:02.053Z,39.75
2022-12-08T00:09:01.239Z,39.64
2022-12-08T00:10:00.459Z,39.05
2022-12-08T00:11:02.614Z,40.18
2022-12-08T00:12:00.830Z,39.75
2022-12-08T00:13:01.065Z,40.18
2022-12-08T00:14:02.199Z,39.32
2022-12-08T00:15:01.599Z,40.18
2022-12-08T00:16:01.474Z,39.37
2022-12-08T00:17:03.756Z,40.18
2022-12-08T00:18:02.072Z,39.05
2022-12-08T00:19:02.303Z,39.37
2022-12-08T00:20:02.492Z,40.18
2022-12-08T00:21:02.680Z,39.05
2022-12-08T00:22:03.823Z,39.05
2022-12-08T00:23:04.539Z,40.18
2022-12-08T00:24:05.213Z,39.05
2022-12-08T00:25:03.755Z,39.48
2022-12-08T00:26:03.659Z,39.16
2022-12-08T00:27:03.862Z,40.18
2022-12-08T00:28:05.510Z,40.12
2022-12-08T00:29:04.252Z,40.18
2022-12-08T00:30:05.461Z,40.18
2022-12-08T00:31:04.660Z,40.18
2022-12-08T00:32:05.030Z,39.75
2022-12-08T00:33:05.305Z,40.18
2022-12-08T00:34:05.490Z,39.21
2022-12-08T00:35:06.005Z,40.18
2022-12-08T00:36:06.876Z,40.18
2022-12-08T00:37:06.082Z,40.18
2022-12-08T00:38:09.304Z,40.18
2022-12-08T00:39:08.471Z,39.05
2022-12-08T00:40:06.860Z,40.18
2022-12-08T00:41:07.710Z,39.05
2022-12-08T00:42:06.902Z,39.05
2022-12-08T00:43:08.570Z,39.42
2022-12-08T00:44:08.228Z,39.26
2022-12-08T00:45:07.461Z,39.05
2022-12-08T00:46:07.777Z,40.18
2022-12-08T00:47:09.844Z,39.05
2022-12-08T00:48:08.037Z,39.05
2022-12-08T00:49:08.233Z,39.05
2022-12-08T00:50:08.491Z,40.01
2022-12-08T00:51:10.694Z,39.05
2022-12-08T00:52:10.371Z,40.18
2022-12-08T00:53:10.046Z,39.10
2022-12-08T00:54:09.273Z,39.85
2022-12-08T00:55:11.454Z,40.18
2022-12-08T00:56:11.621Z,40.18
2022-12-08T00:57:09.834Z,39.05
2022-12-08T00:58:12.002Z,40.12
2022-12-08T00:59:10.260Z,40.18
2022-12-08T01:00:12.520Z,39.69
2022-12-08T01:01:10.810Z,39.75
2022-12-08T01:02:11.044Z,39.80
2022-12-08T01:03:12.760Z,40.18
2022-12-08T01:04:13.532Z,39.53
2022-12-08T01:05:11.785Z,40.18
2022-12-08T01:06:13.464Z,39.05
2022-12-08T01:07:14.163Z,40.18
2022-12-08T01:08:14.452Z,39.05
2022-12-08T01:09:12.703Z,39.32
2022-12-08T01:10:13.973Z,39.05
2022-12-08T01:11:13.165Z,40.18
2022-12-08T01:12:13.364Z,40.18
2022-12-08T01:13:13.565Z,40.18
2022-12-08T01:14:14.715Z,39.32
2022-12-08T01:15:13.935Z,39.05
2022-12-08T01:16:14.204Z,39.05
2022-12-08T01:17:14.475Z,39.32
2022-12-08T01:18:16.672Z,39.75
2022-12-08T01:19:14.886Z,39.05
2022-12-08T01:21:25.939Z,39.16
2022-12-08T01:22:26.118Z,39.85
2022-12-08T01:23:25.325Z,39.64
2022-12-08T01:24:26.527Z,40.18
2022-12-08T01:25:25.756Z,40.18
2022-12-08T01:26:25.954Z,40.18
2022-12-08T01:27:26.163Z,39.05
2022-12-08T01:28:27.326Z,40.18
2022-12-08T01:29:26.524Z,39.75
2022-12-08T01:30:26.803Z,40.18
2022-12-08T01:31:27.137Z,39.96
2022-12-08T01:32:27.430Z,40.01
2022-12-08T01:33:27.625Z,39.05
2022-12-08T01:34:27.837Z,39.69
2022-12-08T01:35:28.064Z,39.53
2022-12-08T01:36:29.235Z,39.42
2022-12-08T01:37:30.452Z,40.01
2022-12-08T01:38:30.698Z,39.05
2022-12-08T01:39:28.916Z,40.18
2022-12-08T01:40:30.096Z,40.18
2022-12-08T01:41:29.316Z,39.05
2022-12-08T01:42:30.529Z,39.37
2022-12-08T01:43:29.762Z,39.05
2022-12-08T01:44:29.967Z,39.91
2022-12-08T01:45:31.655Z,39.91
2022-12-08T01:46:30.451Z,39.64
2022-12-08T01:47:32.745Z,39.05
2022-12-08T01:48:31.947Z,39.05
2022-12-08T01:49:31.185Z,39.05
2022-12-08T01:50:31.387Z,40.18
2022-12-08T01:51:33.565Z,40.18
2022-12-08T01:52:33.756Z,39.21
2022-12-08T01:53:31.936Z,39.37
2022-12-08T01:54:34.120Z,40.18
2022-12-08T01:55:32.317Z,40.18
2022-12-08T01:56:32.543Z,39.05
2022-12-08T01:57:34.705Z,39.05
2022-12-08T01:58:33.879Z,40.18
2022-12-08T01:59:33.104Z,39.80
2022-12-08T02:00:35.309Z,39.64
2022-12-08T02:01:33.554Z,40.18
2022-12-08T02:02:33.862Z,39.05
2022-12-08T02:03:34.087Z,39.05
2022-12-08T02:04:34.347Z,39.05
2022-12-08T02:05:36.517Z,39.05
2022-12-08T02:06:35.768Z,39.96
2022-12-08T02:07:36.989Z,39.85
2022-12-08T02:08:36.230Z,39.05
2022-12-08T02:09:35.467Z,39.26
2022-12-08T02:10:35.718Z,40.18
2022-12-08T02:11:35.920Z,39.69
2022-12-08T02:12:37.098Z,39.05
2022-12-08T02:13:36.287Z,39.42
2022-12-08T02:14:36.518Z,39.21
2022-12-08T02:15:36.804Z,40.18
2022-12-08T02:16:39.035Z,39.37
2022-12-08T02:17:39.208Z,40.01
2022-12-08T02:18:37.418Z,39.53
2022-12-08T02:19:38.622Z,40.18
2022-12-08T02:20:37.827Z,39.91
2022-12-08T02:21:39.486Z,39.10
2022-12-08T02:22:40.138Z,40.18
2022-12-08T02:23:38.350Z,40.07
2022-12-08T02:24:38.570Z,40.18
2022-12-08T02:25:38.748Z,39.32
2022-12-08T02:26:39.923Z,40.18
2022-12-08T02:27:40.079Z,39.91
2022-12-08T02:28:40.728Z,40.18
2022-12-08T02:29:40.378Z,40.01
2022-12-08T02:30:41.656Z,39.05
2022-12-08T02:31:40.701Z,40.12
2022-12-08T02:32:40.868Z,39.05
2022-12-08T02:33:41.009Z,39.80
2022-12-08T02:34:42.178Z,39.32
2022-12-08T02:35:40.407Z,39.48
2022-12-08T02:36:42.589Z,39.37
2022-12-08T02:37:42.769Z,39.58
2022-12-08T02:38:42.931Z,40.18
2022-12-08T02:39:41.140Z,39.32
2022-12-08T02:40:42.334Z,39.21
2022-12-08T02:41:42.501Z,39.91
2022-12-08T02:42:41.710Z,39.91
2022-12-08T02:43:42.869Z,39.58
2022-12-08T02:44:42.079Z,39.75
2022-12-08T02:45:42.310Z,39.05
2022-12-08T02:46:42.558Z,39.58
2022-12-08T02:47:42.800Z,39.48
2022-12-08T02:48:43.953Z,39.48
2022-12-08T02:49:43.160Z,40.07
2022-12-08T02:50:43.379Z,39.85
2022-12-08T02:51:43.590Z,39.75
2022-12-08T02:52:43.806Z,39.91
2022-12-08T02:53:44.010Z,39.75
2022-12-08T02:54:44.212Z,39.48
2022-12-08T02:55:44.436Z,39.16
2022-12-08T02:56:44.650Z,40.18
2022-12-08T02:57:44.852Z,40.18
2022-12-08T02:58:47.012Z,39.91
2022-12-08T02:59:46.012Z,39.05
2022-12-08T03:00:47.202Z,39.10
2022-12-08T03:01:46.978Z,39.75
2022-12-08T03:02:47.842Z,39.48
2022-12-08T03:03:46.062Z,39.80
2022-12-08T03:04:48.220Z,40.01
2022-12-08T03:05:46.473Z,39.75
2022-12-08T03:06:48.133Z,39.80
2022-12-08T03:07:46.983Z,39.64
2022-12-08T03:08:48.161Z,39.53
2022-12-08T03:09:47.362Z,40.23
2022-12-08T03:10:47.592Z,39.26
2022-12-08T03:11:48.755Z,40.12
2022-12-08T03:12:49.921Z,40.18
2022-12-08T03:13:49.092Z,39.91
2022-12-08T03:14:48.271Z,39.69
2022-12-08T03:15:48.562Z,39.85
2022-12-08T03:16:49.812Z,39.05
2022-12-08T03:17:49.988Z,39.21
2022-12-08T03:18:49.201Z,39.37
2022-12-08T03:19:50.261Z,39.69
2022-12-08T03:20:49.485Z,39.91
2022-12-08T03:21:50.635Z,39.37
2022-12-08T03:22:51.862Z,39.69
2022-12-08T03:23:50.075Z,39.32
2022-12-08T03:24:50.343Z,39.42
2022-12-08T03:25:51.530Z,40.01
2022-12-08T03:26:52.679Z,39.10
2022-12-08T03:27:51.853Z,40.18
2022-12-08T03:28:51.847Z,39.91
2022-12-08T03:29:51.058Z,40.18
2022-12-08T03:30:52.257Z,40.23
2022-12-08T03:31:52.353Z,39.64
2022-12-08T03:32:52.502Z,39.37
2022-12-08T03:33:51.712Z,39.32
2022-12-08T03:34:52.882Z,39.21
2022-12-08T03:35:54.123Z,39.80
2022-12-08T03:36:52.383Z,40.18
2022-12-08T03:37:54.572Z,39.64
2022-12-08T03:38:54.745Z,39.85
2022-12-08T03:39:52.953Z,40.18
2022-12-08T03:40:54.619Z,39.64
2022-12-08T03:41:53.375Z,39.80
2022-12-08T03:42:53.603Z,40.18
2022-12-08T03:43:54.784Z,40.23
2022-12-08T03:44:53.994Z,39.85
2022-12-08T03:45:56.213Z,39.05
2022-12-08T03:46:55.364Z,39.16
2022-12-08T03:47:56.540Z,40.23
2022-12-08T03:48:56.716Z,39.16
2022-12-08T03:49:56.916Z,40.18
2022-12-08T03:50:55.114Z,39.37
2022-12-08T03:51:56.274Z,39.21
2022-12-08T03:52:55.471Z,39.05
2022-12-08T03:53:55.664Z,39.91
2022-12-08T03:54:55.895Z,39.64
2022-12-08T03:55:56.106Z,40.23
2022-12-08T03:56:56.334Z,40.23
2022-12-08T03:57:56.562Z,39.05
2022-12-08T03:58:56.758Z,39.05
2022-12-08T03:59:57.934Z,39.05
2022-12-08T04:00:57.126Z,39.64
2022-12-08T04:01:57.413Z,39.37
2022-12-08T04:02:57.685Z,39.05
2022-12-08T04:03:58.910Z,39.05
2022-12-08T04:04:59.094Z,40.23
2022-12-08T04:06:00.276Z,40.23
2022-12-08T04:07:01.316Z,39.21
2022-12-08T04:07:58.548Z,40.23
2022-12-08T04:08:58.814Z,39.96
2022-12-08T04:09:59.084Z,39.69
2022-12-08T04:10:59.294Z,40.23
2022-12-08T04:12:00.444Z,40.23
2022-12-08T04:12:59.646Z,39.05
2022-12-08T04:13:59.887Z,40.23
2022-12-08T04:15:01.068Z,39.05
2022-12-08T04:16:00.331Z,40.01
2022-12-08T04:17:01.615Z,39.85
2022-12-08T04:18:01.765Z,39.53
2022-12-08T04:19:01.006Z,40.12
2022-12-08T04:20:01.569Z,40.23
2022-12-08T04:21:01.446Z,39.26
2022-12-08T04:22:02.645Z,39.05
2022-12-08T04:23:02.838Z,39.42
2022-12-08T04:24:02.916Z,39.05
2022-12-08T04:25:03.067Z,39.58
2022-12-08T04:26:03.755Z,39.05
2022-12-08T04:27:03.937Z,39.26
2022-12-08T04:28:04.492Z,39.10
2022-12-08T04:29:03.711Z,40.23
2022-12-08T04:30:04.477Z,40.07
2022-12-08T04:31:04.661Z,39.48
2022-12-08T04:32:04.867Z,40.23
2022-12-08T04:33:05.036Z,39.05
2022-12-08T04:34:05.243Z,39.85
2022-12-08T04:35:05.467Z,39.05
2022-12-08T04:36:05.667Z,40.01
2022-12-08T04:37:05.855Z,39.05
2022-12-08T04:38:06.068Z,39.05
2022-12-08T04:39:06.258Z,40.23
2022-12-08T04:40:07.350Z,39.42
2022-12-08T04:41:06.626Z,39.58
2022-12-08T04:42:06.811Z,39.75
2022-12-08T04:43:06.986Z,39.05
2022-12-08T04:44:07.190Z,39.64
2022-12-08T04:45:07.391Z,39.80
2022-12-08T04:46:08.245Z,39.75
2022-12-08T04:47:08.078Z,40.07
2022-12-08T04:48:08.409Z,39.05
2022-12-08T04:49:08.596Z,39.05
2022-12-08T04:50:08.769Z,39.05
2022-12-08T04:51:08.955Z,39.05
2022-12-08T04:52:09.636Z,40.23
2022-12-08T04:53:09.344Z,39.05
2022-12-08T04:54:09.391Z,39.42
2022-12-08T04:55:10.068Z,39.05
2022-12-08T04:56:09.737Z,39.80
2022-12-08T04:57:09.897Z,39.05
2022-12-08T04:58:10.592Z,40.07
2022-12-08T04:59:10.271Z,40.23
2022-12-08T05:00:10.938Z,39.96
2022-12-08T05:01:12.253Z,40.23
2022-12-08T05:02:10.130Z,39.05
2022-12-08T05:03:11.369Z,39.05
2022-12-08T05:04:10.601Z,40.23
2022-12-08T05:05:10.820Z,40.23
2022-12-08T05:06:13.028Z,40.23
2022-12-08T05:07:13.230Z,39.05
2022-12-08T05:08:13.618Z,39.05
2022-12-08T05:09:11.900Z,39.05
2022-12-08T05:10:13.081Z,39.58
2022-12-08T05:11:13.287Z,39.42
2022-12-08T05:12:12.509Z,39.10
2022-12-08T05:13:14.187Z,40.12
2022-12-08T05:14:12.908Z,40.23
2022-12-08T05:15:13.099Z,39.53
2022-12-08T05:16:13.454Z,40.12
2022-12-08T05:17:13.758Z,39.05
2022-12-08T05:18:13.968Z,40.18
2022-12-08T05:19:14.178Z,39.80
2022-12-08T05:20:14.419Z,39.48
2022-12-08T05:21:14.661Z,39.37
2022-12-08T05:22:15.828Z,39.37
2022-12-08T05:23:15.053Z,39.91
2022-12-08T05:24:17.730Z,39.91
2022-12-08T05:25:15.429Z,40.07
2022-12-08T05:26:15.669Z,39.91
2022-12-08T05:27:15.889Z,39.37
2022-12-08T05:28:40.147Z,40.07
2022-12-08T05:29:17.319Z,40.18
2022-12-08T05:30:16.529Z,39.05
2022-12-08T05:31:18.765Z,39.05
2022-12-08T05:32:17.011Z,39.05
2022-12-08T05:33:17.229Z,39.80
2022-12-08T05:34:19.421Z,40.07
2022-12-08T05:35:17.649Z,40.23
2022-12-08T05:36:19.854Z,39.91
2022-12-08T05:37:18.870Z,39.91
2022-12-08T05:38:20.118Z,39.80
2022-12-08T05:39:18.345Z,39.96
2022-12-08T05:40:18.560Z,40.07
2022-12-08T05:41:20.740Z,39.80
2022-12-08T05:42:24.757Z,39.75
2022-12-08T05:43:21.397Z,40.07
2022-12-08T05:44:19.620Z,39.53
2022-12-08T05:45:19.853Z,39.05
2022-12-08T05:46:21.086Z,40.07
2022-12-08T05:47:20.319Z,39.10
2022-12-08T05:48:22.026Z,39.37
2022-12-08T05:49:20.748Z,39.58
2022-12-08T05:50:20.992Z,39.53
2022-12-08T05:51:22.161Z,39.85
2022-12-08T05:52:22.851Z,39.58
2022-12-08T05:53:22.512Z,40.18
2022-12-08T05:54:23.668Z,39.80
2022-12-08T05:55:23.400Z,39.80
2022-12-08T05:56:22.108Z,39.96
2022-12-08T05:57:22.382Z,39.48
2022-12-08T05:58:23.561Z,40.23
2022-12-08T05:59:23.762Z,39.05
2022-12-08T06:00:24.470Z,40.23
2022-12-08T06:01:24.119Z,39.16
2022-12-08T06:02:23.519Z,39.53
2022-12-08T06:03:24.837Z,39.48
2022-12-08T06:04:24.090Z,39.80
2022-12-08T06:05:26.310Z,40.07
2022-12-08T06:06:24.523Z,39.80
2022-12-08T06:07:26.222Z,40.23
2022-12-08T06:08:28.038Z,39.64
2022-12-08T06:09:25.361Z,39.96
2022-12-08T06:10:25.716Z,39.37
2022-12-08T06:11:25.980Z,40.12
2022-12-08T06:12:26.220Z,39.58
2022-12-08T06:13:27.911Z,39.85
2022-12-08T06:14:28.652Z,39.96
2022-12-08T06:15:26.864Z,39.58
2022-12-08T06:16:27.156Z,39.80
2022-12-08T06:17:27.490Z,40.23
2022-12-08T06:18:32.747Z,39.64
2022-12-08T06:19:28.751Z,39.48
2022-12-08T06:20:27.980Z,39.75
2022-12-08T06:21:28.243Z,39.64
2022-12-08T06:22:30.471Z,39.91
2022-12-08T06:23:29.531Z,39.37
2022-12-08T06:24:29.703Z,39.80
2022-12-08T06:25:28.966Z,39.37
2022-12-08T06:26:29.231Z,39.80
2022-12-08T06:27:30.413Z,39.91
2022-12-08T06:28:31.675Z,39.91
2022-12-08T06:29:30.912Z,39.48
2022-12-08T06:30:30.944Z,39.21
2022-12-08T06:31:31.157Z,39.48
2022-12-08T06:32:30.819Z,39.05
2022-12-08T06:33:31.381Z,40.07
2022-12-08T06:34:31.579Z,39.85
2022-12-08T06:35:31.754Z,39.96
2022-12-08T06:36:32.042Z,39.58
2022-12-08T06:37:32.386Z,39.80
2022-12-08T06:38:33.133Z,39.48
2022-12-08T06:39:32.622Z,39.91
2022-12-08T06:40:34.341Z,40.12
2022-12-08T06:41:33.443Z,39.80
2022-12-08T06:42:33.604Z,39.80
2022-12-08T06:43:33.796Z,39.69
2022-12-08T06:44:33.962Z,39.42
2022-12-08T06:45:34.158Z,39.91
2022-12-08T06:46:34.801Z,39.37
2022-12-08T06:47:34.421Z,39.42
2022-12-08T06:48:34.554Z,39.26
2022-12-08T06:49:34.713Z,39.80
2022-12-08T06:50:34.002Z,39.80
2022-12-08T06:51:34.243Z,39.37
2022-12-08T06:52:40.877Z,39.75
2022-12-08T06:53:35.412Z,40.23
2022-12-08T06:54:35.520Z,40.07
2022-12-08T06:55:58.005Z,39.80
2022-12-08T06:56:35.823Z,39.10
2022-12-08T06:57:36.075Z,39.26
2022-12-08T06:58:36.383Z,39.48
2022-12-08T06:59:36.576Z,39.48
2022-12-08T07:00:36.822Z,39.37
2022-12-08T07:01:36.924Z,39.96
2022-12-08T07:02:37.202Z,39.37
2022-12-08T07:03:36.650Z,39.69
2022-12-08T07:04:36.873Z,40.23
2022-12-08T07:05:38.046Z,39.42
2022-12-08T07:06:38.203Z,39.75
2022-12-08T07:07:38.427Z,39.58
2022-12-08T07:08:38.754Z,39.91
2022-12-08T07:09:38.943Z,40.23
2022-12-08T07:10:39.109Z,39.21
2022-12-08T07:11:39.081Z,39.91
2022-12-08T07:12:39.664Z,39.91
2022-12-08T07:13:39.835Z,40.07
2022-12-08T07:14:39.094Z,39.80
2022-12-08T07:15:40.159Z,39.48
2022-12-08T07:16:40.387Z,40.07
2022-12-08T07:17:40.477Z,39.91
2022-12-08T07:18:40.734Z,39.96
2022-12-08T07:19:40.805Z,39.80
2022-12-08T07:20:40.957Z,39.48
2022-12-08T07:21:40.303Z,39.58
2022-12-08T07:22:41.274Z,39.16
2022-12-08T07:23:42.078Z,40.23
2022-12-08T07:24:42.117Z,39.91
2022-12-08T07:25:42.314Z,40.12
2022-12-08T07:26:42.434Z,39.05
2022-12-08T07:27:42.710Z,39.96
2022-12-08T07:28:44.024Z,39.64
2022-12-08T07:29:44.231Z,39.37
2022-12-08T07:30:43.381Z,39.91
2022-12-08T07:31:44.137Z,39.21
2022-12-08T07:32:43.646Z,39.80
2022-12-08T07:33:43.805Z,39.58
2022-12-08T07:34:45.425Z,40.23
2022-12-08T07:35:49.117Z,39.85
2022-12-08T07:36:45.115Z,39.80
2022-12-08T07:37:44.724Z,40.01
2022-12-08T07:38:45.216Z,39.85
2022-12-08T07:39:44.515Z,39.80
2022-12-08T07:40:45.716Z,39.64
2022-12-08T07:41:46.927Z,39.80
2022-12-08T07:42:46.007Z,39.48
2022-12-08T07:43:45.302Z,39.80
2022-12-08T07:44:46.359Z,39.96
2022-12-08T07:45:47.652Z,39.96
2022-12-08T07:46:47.943Z,39.80
2022-12-08T07:47:48.168Z,39.37
2022-12-08T07:48:47.908Z,39.91
2022-12-08T07:49:47.387Z,39.64
2022-12-08T07:50:49.098Z,40.23
2022-12-08T07:51:49.315Z,39.80
2022-12-08T07:52:48.596Z,39.37
2022-12-08T07:53:53.727Z,39.80
2022-12-08T07:54:49.135Z,39.91
2022-12-08T07:55:49.337Z,40.23
2022-12-08T07:56:48.656Z,40.12
2022-12-08T07:57:50.879Z,39.80
2022-12-08T07:58:51.158Z,39.91
2022-12-08T07:59:49.498Z,40.23
2022-12-08T08:00:49.797Z,39.37
2022-12-08T08:02:11.704Z,39.42
2022-12-08T08:02:51.424Z,40.01
2022-12-08T08:03:51.408Z,39.26
2022-12-08T08:04:52.207Z,40.23
2022-12-08T08:05:52.457Z,40.23
2022-12-08T08:06:52.420Z,40.12
2022-12-08T08:07:53.169Z,40.23
2022-12-08T08:08:54.536Z,39.85
2022-12-08T08:09:53.813Z,39.80
2022-12-08T08:10:54.066Z,39.37
2022-12-08T08:12:14.702Z,39.96
2022-12-08T08:12:54.387Z,39.80
2022-12-08T08:13:54.652Z,40.23
2022-12-08T08:14:54.868Z,39.80
2022-12-08T08:15:55.218Z,40.23
2022-12-08T08:16:55.373Z,39.80
2022-12-08T08:17:55.678Z,40.23
2022-12-08T08:18:55.919Z,40.23
2022-12-08T08:19:56.053Z,40.23
2022-12-08T08:20:56.188Z,39.75
2022-12-08T08:21:56.609Z,40.23
2022-12-08T08:22:56.748Z,41.09
2022-12-08T08:23:56.926Z,40.18
2022-12-08T08:24:57.115Z,40.23
2022-12-08T08:25:57.244Z,40.18
2022-12-08T08:26:57.470Z,40.18
2022-12-08T08:27:58.862Z,40.23
2022-12-08T08:28:58.125Z,39.80
2022-12-08T08:29:58.348Z,40.23
2022-12-08T08:30:58.574Z,40.23
2022-12-08T08:31:58.868Z,39.80
2022-12-08T08:32:59.192Z,39.80
2022-12-08T08:33:59.449Z,40.23
2022-12-08T08:34:59.517Z,39.91
2022-12-08T08:35:59.651Z,40.23
2022-12-08T08:36:59.952Z,40.23
2022-12-08T08:38:00.349Z,40.23
2022-12-08T08:39:00.589Z,40.23
2022-12-08T08:40:00.869Z,39.53
2022-12-08T08:41:02.009Z,40.23
2022-12-08T08:42:01.241Z,39.64
2022-12-08T08:43:01.502Z,41.09
2022-12-08T08:44:01.765Z,39.85
2022-12-08T08:45:01.887Z,40.23
2022-12-08T08:46:02.202Z,40.23
2022-12-08T08:47:02.399Z,40.23
2022-12-08T08:48:02.752Z,39.37
2022-12-08T08:49:02.970Z,41.09
2022-12-08T08:50:03.297Z,40.23
2022-12-08T08:51:03.392Z,41.09
2022-12-08T08:52:03.450Z,39.80
2022-12-08T08:53:03.601Z,40.23
2022-12-08T08:54:03.844Z,39.80
2022-12-08T08:55:04.017Z,40.23
2022-12-08T08:56:04.313Z,40.23
2022-12-08T08:57:05.530Z,40.23
2022-12-08T08:58:04.789Z,40.23
2022-12-08T08:59:05.061Z,40.23
2022-12-08T09:00:05.435Z,39.69
2022-12-08T09:01:04.900Z,40.23
2022-12-08T09:02:06.124Z,39.85
2022-12-08T09:03:06.260Z,40.23
2022-12-08T09:04:05.597Z,39.96
2022-12-08T09:05:06.051Z,40.23
2022-12-08T09:06:07.267Z,39.80
2022-12-08T09:07:07.391Z,40.23
2022-12-08T09:08:07.826Z,40.98
2022-12-08T09:09:08.132Z,40.23
2022-12-08T09:10:08.853Z,40.23
2022-12-08T09:11:09.681Z,40.23
2022-12-08T09:12:07.996Z,41.68
2022-12-08T09:13:09.390Z,40.23
2022-12-08T09:14:09.531Z,40.23
2022-12-08T09:15:09.701Z,40.23
2022-12-08T09:16:09.947Z,40.23
2022-12-08T09:17:10.254Z,40.23
2022-12-08T09:18:10.430Z,40.23
2022-12-08T09:19:10.658Z,40.23
2022-12-08T09:20:10.899Z,40.23
2022-12-08T09:21:11.161Z,40.23
2022-12-08T09:22:11.390Z,40.23
2022-12-08T09:23:11.630Z,40.23
2022-12-08T09:24:11.680Z,41.04
2022-12-08T09:25:11.887Z,40.23
2022-12-08T09:26:11.962Z,40.23
2022-12-08T09:27:12.259Z,40.23
2022-12-08T09:28:13.542Z,40.23
2022-12-08T09:29:12.802Z,40.23
2022-12-08T09:30:12.363Z,40.23
2022-12-08T09:31:13.055Z,41.09
2022-12-08T09:32:13.181Z,40.23
2022-12-08T09:33:12.491Z,40.23
2022-12-08T09:34:14.737Z,40.61
2022-12-08T09:35:13.014Z,40.23
2022-12-08T09:36:13.281Z,40.23
2022-12-08T09:37:14.243Z,40.23
2022-12-08T09:38:16.052Z,41.09
2022-12-08T09:39:15.063Z,40.93
2022-12-08T09:40:15.232Z,40.23
2022-12-08T09:41:14.682Z,41.09
2022-12-08T09:42:16.436Z,40.93
2022-12-08T09:43:15.966Z,40.71
2022-12-08T09:44:16.693Z,41.09
2022-12-08T09:45:16.420Z,40.98
2022-12-08T09:46:16.492Z,40.39
2022-12-08T09:47:16.602Z,40.82
2022-12-08T09:48:16.012Z,41.09
2022-12-08T09:49:17.272Z,40.23
2022-12-08T09:50:17.372Z,42.38
2022-12-08T09:51:18.632Z,40.93
2022-12-08T09:52:18.852Z,41.95
2022-12-08T09:53:18.073Z,40.39
2022-12-08T09:54:18.459Z,40.23
2022-12-08T09:55:18.674Z,40.23
2022-12-08T09:56:18.018Z,42.27
2022-12-08T09:57:19.276Z,41.95
2022-12-08T09:58:19.544Z,40.23
2022-12-08T09:59:19.796Z,41.09
2022-12-08T10:00:20.063Z,41.14
2022-12-08T10:01:20.903Z,41.04
2022-12-08T10:02:21.304Z,41.25
2022-12-08T10:03:21.187Z,41.09
2022-12-08T10:04:21.453Z,40.23
2022-12-08T10:05:21.863Z,41.95
2022-12-08T10:06:22.205Z,41.09
2022-12-08T10:07:22.464Z,40.82
2022-12-08T10:08:22.762Z,41.84
2022-12-08T10:09:23.191Z,40.71
2022-12-08T10:10:23.374Z,41.41
2022-12-08T10:11:23.535Z,40.23
2022-12-08T10:12:23.744Z,41.95
2022-12-08T10:13:23.935Z,40.23
2022-12-08T10:14:23.993Z,41.04
2022-12-08T10:15:24.297Z,42.11
2022-12-08T10:16:29.480Z,42.16
2022-12-08T10:17:24.760Z,40.87
2022-12-08T10:18:24.897Z,41.20
2022-12-08T10:19:25.066Z,41.30
2022-12-08T10:20:25.355Z,41.84
2022-12-08T10:21:24.653Z,40.34
2022-12-08T10:22:25.938Z,40.61
2022-12-08T10:23:26.154Z,40.23
2022-12-08T10:24:26.368Z,42.00
2022-12-08T10:25:26.614Z,41.46
2022-12-08T10:26:26.877Z,41.73
2022-12-08T10:27:27.087Z,40.23
2022-12-08T10:28:27.305Z,42.27
2022-12-08T10:29:27.589Z,40.23
2022-12-08T10:30:27.863Z,40.23
2022-12-08T10:31:28.139Z,41.09
2022-12-08T10:32:28.186Z,42.49
2022-12-08T10:33:28.415Z,41.68
2022-12-08T10:34:28.623Z,41.41
2022-12-08T10:35:28.834Z,42.65
2022-12-08T10:36:28.811Z,41.68
2022-12-08T10:37:29.526Z,42.16
2022-12-08T10:38:29.831Z,42.43
2022-12-08T10:39:30.074Z,42.54
2022-12-08T10:40:30.311Z,42.11
2022-12-08T10:41:30.346Z,40.39
2022-12-08T10:42:30.525Z,41.73
2022-12-08T10:43:30.821Z,41.95
2022-12-08T10:44:31.075Z,40.71
2022-12-08T10:45:31.308Z,40.98
2022-12-08T10:46:31.524Z,41.14
2022-12-08T10:47:31.871Z,43.08
2022-12-08T10:48:32.135Z,42.49
2022-12-08T10:49:32.361Z,40.82
2022-12-08T10:50:32.599Z,42.32
2022-12-08T10:51:32.908Z,41.09
2022-12-08T10:52:32.926Z,40.23
2022-12-08T10:53:33.057Z,42.32
2022-12-08T10:54:33.782Z,41.68
2022-12-08T10:55:32.508Z,42.11
2022-12-08T10:56:34.138Z,41.63
2022-12-08T10:57:33.697Z,41.73
2022-12-08T10:58:34.392Z,42.54
2022-12-08T10:59:34.705Z,40.82
2022-12-08T11:00:35.083Z,42.22
2022-12-08T11:01:35.505Z,43.51
2022-12-08T11:02:36.850Z,42.54
2022-12-08T11:03:35.148Z,41.68
2022-12-08T11:04:36.406Z,41.63
2022-12-08T11:05:36.534Z,42.54
2022-12-08T11:06:36.839Z,43.88
2022-12-08T11:07:37.161Z,44.58
2022-12-08T11:08:37.466Z,41.89
2022-12-08T11:09:37.804Z,42.06
2022-12-08T11:10:38.058Z,43.51
2022-12-08T11:11:38.318Z,41.95
2022-12-08T11:12:38.606Z,40.82
2022-12-08T11:13:38.855Z,42.54
2022-12-08T11:14:38.979Z,42.54
2022-12-08T11:15:39.150Z,40.87
2022-12-08T11:16:39.380Z,42.22
2022-12-08T11:17:39.557Z,42.06
2022-12-08T11:18:39.847Z,42.54
2022-12-08T11:19:40.067Z,41.68
2022-12-08T11:20:40.292Z,42.75
2022-12-08T11:21:40.359Z,42.54
2022-12-08T11:22:40.507Z,44.15
2022-12-08T11:23:40.678Z,42.54
2022-12-08T11:24:40.827Z,41.46
2022-12-08T11:25:41.001Z,43.83
2022-12-08T11:26:41.192Z,40.23
2022-12-08T11:27:41.457Z,44.10
2022-12-08T11:28:40.758Z,41.68
2022-12-08T11:29:41.878Z,43.56
2022-12-08T11:30:42.068Z,44.15
2022-12-08T11:31:42.374Z,43.13
2022-12-08T11:32:42.610Z,42.54
2022-12-08T11:33:42.857Z,43.51
2022-12-08T11:34:43.105Z,44.90
2022-12-08T11:35:44.308Z,42.75
2022-12-08T11:36:42.581Z,44.31
2022-12-08T11:37:43.853Z,42.97
2022-12-08T11:38:44.127Z,42.06
2022-12-08T11:39:44.271Z,45.06
2022-12-08T11:40:44.532Z,43.18
2022-12-08T11:41:44.559Z,43.77
2022-12-08T11:42:44.829Z,43.29
2022-12-08T11:43:44.908Z,42.00
2022-12-08T11:44:45.139Z,44.79
2022-12-08T11:45:45.317Z,45.06
2022-12-08T11:46:45.394Z,43.24
2022-12-08T11:47:45.519Z,43.51
2022-12-08T11:48:45.734Z,44.31
2022-12-08T11:50:46.039Z,42.70
2022-12-08T11:51:46.711Z,43.40
2022-12-08T11:52:46.362Z,43.51
2022-12-08T11:53:46.659Z,44.85
2022-12-08T11:54:46.938Z,41.89
2022-12-08T11:55:49.862Z,45.06
2022-12-08T11:56:47.469Z,44.15
2022-12-08T11:57:47.848Z,44.42
2022-12-08T11:58:48.098Z,43.29
2022-12-08T11:59:48.311Z,43.72
2022-12-08T12:00:48.553Z,44.15
2022-12-08T12:01:48.843Z,44.31
2022-12-08T12:02:49.162Z,44.15
2022-12-08T12:03:49.533Z,45.39
2022-12-08T12:04:49.750Z,45.01
2022-12-08T12:06:13.219Z,44.15
2022-12-08T12:06:57.570Z,43.94
2022-12-08T12:07:50.881Z,44.69
2022-12-08T12:08:51.139Z,44.15
2022-12-08T12:09:51.380Z,43.51
2022-12-08T12:10:51.569Z,44.79
2022-12-08T12:11:51.764Z,45.06
2022-12-08T12:12:51.933Z,43.34
2022-12-08T12:13:52.172Z,45.06
2022-12-08T12:14:52.360Z,43.24
2022-12-08T12:15:52.562Z,44.42
2022-12-08T12:16:52.852Z,45.06
2022-12-08T12:17:52.897Z,45.06
2022-12-08T12:18:53.635Z,45.06
2022-12-08T12:19:53.852Z,44.90
2022-12-08T12:20:54.041Z,43.67
2022-12-08T12:21:54.262Z,45.06
2022-12-08T12:22:54.494Z,45.06
2022-12-08T12:23:54.729Z,42.16
2022-12-08T12:24:54.927Z,44.31
2022-12-08T12:25:55.213Z,43.51
2022-12-08T12:26:55.400Z,45.06
2022-12-08T12:27:58.168Z,43.40
2022-12-08T12:28:55.671Z,45.06
2022-12-08T12:29:56.331Z,44.42
2022-12-08T12:30:56.199Z,43.45
2022-12-08T12:31:56.536Z,43.02
2022-12-08T12:32:56.714Z,46.03
2022-12-08T12:33:56.732Z,43.34
2022-12-08T12:34:56.895Z,44.15
2022-12-08T12:35:57.056Z,44.15
2022-12-08T12:36:57.204Z,45.06
2022-12-08T12:37:57.369Z,44.74
2022-12-08T12:38:56.614Z,45.06
2022-12-08T12:39:57.694Z,45.06
2022-12-08T12:40:57.853Z,44.69
2022-12-08T12:41:58.055Z,43.40
2022-12-08T12:42:57.292Z,45.60
2022-12-08T12:43:58.322Z,45.06
2022-12-08T12:44:58.498Z,44.31
2022-12-08T12:45:58.781Z,45.06
2022-12-08T12:47:00.012Z,43.99
2022-12-08T12:48:00.232Z,45.06
2022-12-08T12:49:00.440Z,44.15
2022-12-08T12:49:59.630Z,43.72
2022-12-08T12:50:58.932Z,45.06
2022-12-08T12:52:00.194Z,45.44
2022-12-08T12:52:59.482Z,44.79
2022-12-08T12:54:00.443Z,44.42
2022-12-08T12:55:01.113Z,44.15
2022-12-08T12:56:01.285Z,42.54
2022-12-08T12:57:01.435Z,44.10
2022-12-08T12:58:01.583Z,43.51